Castella, CA

5:04 AM PDT on August 29, 2014 (GMT -0700)
Weaverville | Change Station
CLOSE
Current Station
Airport
Location: Weaverville,
Elevation: 2349 ft
Nearby Weather Stations

Elev 2349 ft 40.75 °N, 122.92 °W | Updated 9 minutes ago

Clear
Clear
57 °F
Feels Like 57 °F
N
4
Wind Variable Wind from NE

Today
High -- | Low -- °F
--% Chance of Precip.
Yesterday
High -- | Low -- °F
Precip. -- in
6:32 AM 7:46 PM
Waxing Crescent, 14% visible
Pressure 30.01 in
Visibility 10.0 miles
Clouds Clear
Dew Point 41 °F
Humidity 55%
Rainfall 0.00 in
Snow Depth Not available.
UV 0 out of 12
Pollen 8.80 out of 12
Air Quality Not available.
Flu Activity Not available.
METAR KO54 291155Z AUTO 04003KT 10SM CLR 14/05 A3001 RMK AO1

More Conditions Fewer Conditions

Pressure 30.01 in
Visibility 10.0 miles
Clouds Clear
Dew Point 41 °F
Humidity 55%
Rainfall 0.00 in
Snow Depth Not available.
UV 0 out of 12
Pollen 8.80 out of 12
Air Quality Not available.
Flu Activity Not available.
METAR KO54 291155Z AUTO 04003KT 10SM CLR 14/05 A3001 RMK AO1

More Conditions Fewer Conditions

10-Day Weather Forecast

Almanac

Astronomy

Aug. 29, 2014 Rise Set
Actual Time 6:32 AM PDT 7:46 PM PDT
Civil Twilight 6:04 AM PDT 8:15 PM PDT
Nautical Twilight 5:30 AM PDT 8:49 PM PDT
Astronomical Twilight 4:54 AM PDT 9:24 PM PDT
Moon 10:30 AM PDT 9:44 PM PDT
Length of Visible Light 14h 10m
Length of Day
13h 13m
Tomorrow will be 2m 37s shorter.
Waxing Crescent, 14% of the Moon is Illuminated
Today
Waxing Crescent
Sep 2
First Quarter
Sep 8
Full
Sep 15
Last Quarter
Sep 24
New

Today's Extremes

State Highs State Lows

Community

WunderPhotos

Upload Photos

1,748,214 photos uploaded!

Nearby

Snow Depth

Station Depth Elevation
Adin Mountain 1 in 6200 ft
Crowder Flat 0 in 5100 ft
Cedar Pass 0 in 7100 ft
Independence Camp 0 in 7000 ft
CSS Lab 2 in 6900 ft

Earthquake Activity

City Distance Mag. Time & Date
No recent earthquake activity has been reported nearby.
Minimum magnitude displayed is 2.5.

Coastal Water Temperatures

Place Temperature
No Stations Reporting

Nearby Weather Stations